Terminal Aerodrome Forecast
Issued by NWS

Home | Current Version | Previous Version | Text Only | Print | Product List | Glossary On
Versions: 1 2 3 4 5 6 7 8 9 10 11 12 13 14 15 16 17 18 19 20 21
000
FTUS46 KSGX 042323
TAFCRQ
TAF
KCRQ 042323Z 0500/0524 25011KT P6SM SCT010 BKN016
     FM050200 VRB05KT P6SM OVC016
     FM051200 VRB05KT P6SM OVC020
     FM051900 23011KT P6SM SCT025=

USA.gov is the U.S. government's official web portal to all federal, state and local government web resources and services.